sensor_id;sensor_type;location;lat;lon;timestamp;P1;durP1;ratioP1;P2;durP2;ratioP2
11283;SDS011;5698;47.332;11.180;2023-04-25T00:01:03;1.63;;;1.53;;
11283;SDS011;5698;47.332;11.180;2023-04-25T00:03:30;1.83;;;1.50;;
11283;SDS011;5698;47.332;11.180;2023-04-25T00:05:58;1.67;;;1.57;;
11283;SDS011;5698;47.332;11.180;2023-04-25T00:08:27;1.47;;;1.37;;
11283;SDS011;5698;47.332;11.180;2023-04-25T00:10:54;1.87;;;1.60;;
11283;SDS011;5698;47.332;11.180;2023-04-25T00:13:22;1.50;;;1.40;;
11283;SDS011;5698;47.332;11.180;2023-04-25T00:15:50;1.50;;;1.40;;
11283;SDS011;5698;47.332;11.180;2023-04-25T00:18:19;2.50;;;1.57;;
11283;SDS011;5698;47.332;11.180;2023-04-25T00:20:46;1.70;;;1.50;;
11283;SDS011;5698;47.332;11.180;2023-04-25T00:23:13;2.43;;;1.50;;
11283;SDS011;5698;47.332;11.180;2023-04-25T00:25:42;1.47;;;1.37;;
11283;SDS011;5698;47.332;11.180;2023-04-25T00:28:10;1.60;;;1.43;;
11283;SDS011;5698;47.332;11.180;2023-04-25T00:30:37;3.70;;;1.70;;
11283;SDS011;5698;47.332;11.180;2023-04-25T00:33:04;3.20;;;1.47;;
11283;SDS011;5698;47.332;11.180;2023-04-25T00:35:32;1.73;;;1.63;;
11283;SDS011;5698;47.332;11.180;2023-04-25T00:38:00;1.77;;;1.67;;
11283;SDS011;5698;47.332;11.180;2023-04-25T00:40:27;1.83;;;1.70;;
11283;SDS011;5698;47.332;11.180;2023-04-25T00:42:54;1.97;;;1.60;;
11283;SDS011;5698;47.332;11.180;2023-04-25T00:45:21;1.70;;;1.33;;
11283;SDS011;5698;47.332;11.180;2023-04-25T00:47:53;1.80;;;1.40;;
11283;SDS011;5698;47.332;11.180;2023-04-25T00:50:21;2.50;;;1.63;;
11283;SDS011;5698;47.332;11.180;2023-04-25T00:52:49;1.50;;;1.40;;
11283;SDS011;5698;47.332;11.180;2023-04-25T00:55:17;1.43;;;1.33;;
11283;SDS011;5698;47.332;11.180;2023-04-25T00:57:44;1.60;;;1.30;;
11283;SDS011;5698;47.332;11.180;2023-04-25T01:00:12;1.40;;;1.30;;
11283;SDS011;5698;47.332;11.180;2023-04-25T01:02:39;1.40;;;1.30;;
11283;SDS011;5698;47.332;11.180;2023-04-25T01:05:07;1.50;;;1.40;;
11283;SDS011;5698;47.332;11.180;2023-04-25T01:07:35;4.20;;;1.93;;
11283;SDS011;5698;47.332;11.180;2023-04-25T01:10:04;3.07;;;1.90;;
11283;SDS011;5698;47.332;11.180;2023-04-25T01:12:32;1.80;;;1.70;;
11283;SDS011;5698;47.332;11.180;2023-04-25T01:14:59;3.87;;;1.80;;
11283;SDS011;5698;47.332;11.180;2023-04-25T01:17:26;2.00;;;1.53;;
11283;SDS011;5698;47.332;11.180;2023-04-25T01:19:54;3.00;;;1.80;;
11283;SDS011;5698;47.332;11.180;2023-04-25T01:22:22;3.50;;;1.90;;
11283;SDS011;5698;47.332;11.180;2023-04-25T01:24:49;2.77;;;2.10;;
11283;SDS011;5698;47.332;11.180;2023-04-25T01:27:16;2.53;;;2.23;;
11283;SDS011;5698;47.332;11.180;2023-04-25T01:29:45;3.70;;;2.07;;
11283;SDS011;5698;47.332;11.180;2023-04-25T01:32:13;2.33;;;2.13;;
11283;SDS011;5698;47.332;11.180;2023-04-25T01:34:40;3.80;;;2.20;;
11283;SDS011;5698;47.332;11.180;2023-04-25T01:37:07;2.97;;;2.07;;
11283;SDS011;5698;47.332;11.180;2023-04-25T01:39:36;2.30;;;1.77;;
11283;SDS011;5698;47.332;11.180;2023-04-25T01:42:03;2.57;;;1.93;;
11283;SDS011;5698;47.332;11.180;2023-04-25T01:44:30;2.07;;;1.97;;
11283;SDS011;5698;47.332;11.180;2023-04-25T01:46:57;2.30;;;2.10;;
11283;SDS011;5698;47.332;11.180;2023-04-25T01:49:24;3.87;;;2.00;;
11283;SDS011;5698;47.332;11.180;2023-04-25T01:51:51;2.30;;;2.10;;
11283;SDS011;5698;47.332;11.180;2023-04-25T01:54:18;2.63;;;1.80;;
11283;SDS011;5698;47.332;11.180;2023-04-25T01:56:50;2.43;;;2.23;;
11283;SDS011;5698;47.332;11.180;2023-04-25T01:59:18;2.70;;;1.90;;
11283;SDS011;5698;47.332;11.180;2023-04-25T02:01:46;3.13;;;2.23;;
11283;SDS011;5698;47.332;11.180;2023-04-25T02:04:13;2.90;;;2.33;;
11283;SDS011;5698;47.332;11.180;2023-04-25T02:06:40;2.77;;;2.07;;
11283;SDS011;5698;47.332;11.180;2023-04-25T02:09:07;2.17;;;1.97;;
11283;SDS011;5698;47.332;11.180;2023-04-25T02:11:34;2.83;;;2.00;;
11283;SDS011;5698;47.332;11.180;2023-04-25T02:14:03;2.20;;;2.00;;
11283;SDS011;5698;47.332;11.180;2023-04-25T02:16:30;2.80;;;2.07;;
11283;SDS011;5698;47.332;11.180;2023-04-25T02:18:57;2.73;;;2.13;;
11283;SDS011;5698;47.332;11.180;2023-04-25T02:21:24;2.37;;;2.07;;
11283;SDS011;5698;47.332;11.180;2023-04-25T02:23:51;2.97;;;2.50;;
11283;SDS011;5698;47.332;11.180;2023-04-25T02:26:18;2.27;;;2.07;;
11283;SDS011;5698;47.332;11.180;2023-04-25T02:28:46;2.23;;;2.03;;
11283;SDS011;5698;47.332;11.180;2023-04-25T02:31:14;3.73;;;1.83;;
11283;SDS011;5698;47.332;11.180;2023-04-25T02:33:41;2.27;;;2.07;;
11283;SDS011;5698;47.332;11.180;2023-04-25T02:36:09;2.30;;;2.10;;
11283;SDS011;5698;47.332;11.180;2023-04-25T02:38:36;2.10;;;1.90;;
11283;SDS011;5698;47.332;11.180;2023-04-25T02:41:03;2.17;;;1.63;;
11283;SDS011;5698;47.332;11.180;2023-04-25T02:43:30;1.63;;;1.43;;
11283;SDS011;5698;47.332;11.180;2023-04-25T02:45:57;2.93;;;1.70;;
11283;SDS011;5698;47.332;11.180;2023-04-25T02:48:25;2.07;;;1.90;;
11283;SDS011;5698;47.332;11.180;2023-04-25T02:50:53;1.70;;;1.60;;
11283;SDS011;5698;47.332;11.180;2023-04-25T02:53:20;2.00;;;1.70;;
11283;SDS011;5698;47.332;11.180;2023-04-25T02:55:47;1.50;;;1.40;;
11283;SDS011;5698;47.332;11.180;2023-04-25T02:58:14;2.17;;;1.83;;
11283;SDS011;5698;47.332;11.180;2023-04-25T03:00:42;1.57;;;1.43;;
11283;SDS011;5698;47.332;11.180;2023-04-25T03:03:09;1.27;;;1.13;;
11283;SDS011;5698;47.332;11.180;2023-04-25T03:05:37;1.43;;;1.33;;
11283;SDS011;5698;47.332;11.180;2023-04-25T03:08:04;1.13;;;1.13;;
11283;SDS011;5698;47.332;11.180;2023-04-25T03:10:31;1.20;;;1.10;;
11283;SDS011;5698;47.332;11.180;2023-04-25T03:12:58;2.17;;;1.50;;
11283;SDS011;5698;47.332;11.180;2023-04-25T03:15:25;1.63;;;1.53;;
11283;SDS011;5698;47.332;11.180;2023-04-25T03:17:52;1.73;;;1.40;;
11283;SDS011;5698;47.332;11.180;2023-04-25T03:20:19;1.70;;;1.50;;
11283;SDS011;5698;47.332;11.180;2023-04-25T03:22:47;1.23;;;1.13;;
11283;SDS011;5698;47.332;11.180;2023-04-25T03:25:14;1.50;;;1.40;;
11283;SDS011;5698;47.332;11.180;2023-04-25T03:27:41;1.73;;;1.63;;
11283;SDS011;5698;47.332;11.180;2023-04-25T03:30:08;1.50;;;1.20;;
11283;SDS011;5698;47.332;11.180;2023-04-25T03:32:36;1.40;;;1.30;;
11283;SDS011;5698;47.332;11.180;2023-04-25T03:35:03;1.77;;;1.53;;
11283;SDS011;5698;47.332;11.180;2023-04-25T03:37:30;1.60;;;1.50;;
11283;SDS011;5698;47.332;11.180;2023-04-25T03:39:59;1.70;;;1.47;;
11283;SDS011;5698;47.332;11.180;2023-04-25T03:42:26;1.60;;;1.50;;
11283;SDS011;5698;47.332;11.180;2023-04-25T03:44:53;1.53;;;1.27;;
11283;SDS011;5698;47.332;11.180;2023-04-25T03:47:20;1.20;;;1.10;;
11283;SDS011;5698;47.332;11.180;2023-04-25T03:49:47;1.60;;;1.50;;
11283;SDS011;5698;47.332;11.180;2023-04-25T03:52:16;1.60;;;1.50;;
11283;SDS011;5698;47.332;11.180;2023-04-25T03:54:43;1.67;;;1.57;;
11283;SDS011;5698;47.332;11.180;2023-04-25T03:57:12;1.50;;;1.40;;
11283;SDS011;5698;47.332;11.180;2023-04-25T03:59:39;1.40;;;1.30;;
11283;SDS011;5698;47.332;11.180;2023-04-25T04:02:06;1.40;;;1.30;;
11283;SDS011;5698;47.332;11.180;2023-04-25T04:04:33;2.07;;;1.70;;
11283;SDS011;5698;47.332;11.180;2023-04-25T04:07:00;1.30;;;1.20;;
11283;SDS011;5698;47.332;11.180;2023-04-25T04:09:27;1.37;;;1.27;;
11283;SDS011;5698;47.332;11.180;2023-04-25T04:11:54;1.23;;;1.13;;
11283;SDS011;5698;47.332;11.180;2023-04-25T04:14:23;1.57;;;1.10;;
11283;SDS011;5698;47.332;11.180;2023-04-25T04:16:50;1.77;;;1.30;;
11283;SDS011;5698;47.332;11.180;2023-04-25T04:19:17;2.50;;;1.70;;
11283;SDS011;5698;47.332;11.180;2023-04-25T04:21:44;1.70;;;1.60;;
11283;SDS011;5698;47.332;11.180;2023-04-25T04:24:11;1.80;;;1.70;;
11283;SDS011;5698;47.332;11.180;2023-04-25T04:26:38;1.70;;;1.40;;
11283;SDS011;5698;47.332;11.180;2023-04-25T04:29:05;1.70;;;1.60;;
11283;SDS011;5698;47.332;11.180;2023-04-25T04:31:35;2.30;;;1.70;;
11283;SDS011;5698;47.332;11.180;2023-04-25T04:34:02;1.70;;;1.60;;
11283;SDS011;5698;47.332;11.180;2023-04-25T04:36:29;1.97;;;1.70;;
11283;SDS011;5698;47.332;11.180;2023-04-25T04:38:57;1.73;;;1.63;;
11283;SDS011;5698;47.332;11.180;2023-04-25T04:41:24;1.63;;;1.53;;
11283;SDS011;5698;47.332;11.180;2023-04-25T04:43:51;2.07;;;1.90;;
11283;SDS011;5698;47.332;11.180;2023-04-25T04:46:18;1.97;;;1.27;;
11283;SDS011;5698;47.332;11.180;2023-04-25T04:48:46;2.60;;;1.83;;
11283;SDS011;5698;47.332;11.180;2023-04-25T04:51:13;2.27;;;2.10;;
11283;SDS011;5698;47.332;11.180;2023-04-25T04:53:40;2.60;;;2.17;;
11283;SDS011;5698;47.332;11.180;2023-04-25T04:56:07;2.17;;;2.07;;
11283;SDS011;5698;47.332;11.180;2023-04-25T04:58:34;2.47;;;2.27;;
11283;SDS011;5698;47.332;11.180;2023-04-25T05:01:02;2.43;;;2.23;;
11283;SDS011;5698;47.332;11.180;2023-04-25T05:03:29;2.70;;;2.50;;
11283;SDS011;5698;47.332;11.180;2023-04-25T05:05:57;3.00;;;2.70;;
11283;SDS011;5698;47.332;11.180;2023-04-25T05:08:24;3.47;;;2.40;;
11283;SDS011;5698;47.332;11.180;2023-04-25T05:10:51;2.60;;;2.40;;
11283;SDS011;5698;47.332;11.180;2023-04-25T05:13:18;3.17;;;2.77;;
11283;SDS011;5698;47.332;11.180;2023-04-25T05:15:45;3.00;;;2.70;;
11283;SDS011;5698;47.332;11.180;2023-04-25T05:18:12;3.10;;;2.90;;
11283;SDS011;5698;47.332;11.180;2023-04-25T05:20:39;2.47;;;2.27;;
11283;SDS011;5698;47.332;11.180;2023-04-25T05:23:08;2.93;;;2.70;;
11283;SDS011;5698;47.332;11.180;2023-04-25T05:25:35;3.47;;;2.70;;
11283;SDS011;5698;47.332;11.180;2023-04-25T05:28:02;5.57;;;3.30;;
11283;SDS011;5698;47.332;11.180;2023-04-25T05:30:30;3.03;;;2.80;;
11283;SDS011;5698;47.332;11.180;2023-04-25T05:32:57;6.57;;;2.43;;
11283;SDS011;5698;47.332;11.180;2023-04-25T05:35:24;3.30;;;2.90;;
11283;SDS011;5698;47.332;11.180;2023-04-25T05:37:51;3.50;;;2.60;;
11283;SDS011;5698;47.332;11.180;2023-04-25T05:40:19;3.33;;;3.03;;
11283;SDS011;5698;47.332;11.180;2023-04-25T05:42:46;2.70;;;2.50;;
11283;SDS011;5698;47.332;11.180;2023-04-25T05:45:13;3.03;;;2.70;;
11283;SDS011;5698;47.332;11.180;2023-04-25T05:47:40;3.23;;;2.93;;
11283;SDS011;5698;47.332;11.180;2023-04-25T05:50:07;4.10;;;3.10;;
11283;SDS011;5698;47.332;11.180;2023-04-25T05:52:34;3.17;;;2.80;;
11283;SDS011;5698;47.332;11.180;2023-04-25T05:55:01;4.07;;;3.10;;
11283;SDS011;5698;47.332;11.180;2023-04-25T05:57:30;4.27;;;2.60;;
11283;SDS011;5698;47.332;11.180;2023-04-25T05:59:57;2.67;;;2.47;;
11283;SDS011;5698;47.332;11.180;2023-04-25T06:02:24;3.63;;;3.33;;
11283;SDS011;5698;47.332;11.180;2023-04-25T06:04:51;4.07;;;3.60;;
11283;SDS011;5698;47.332;11.180;2023-04-25T06:07:18;4.00;;;3.70;;
11283;SDS011;5698;47.332;11.180;2023-04-25T06:09:46;4.57;;;4.20;;
11283;SDS011;5698;47.332;11.180;2023-04-25T06:12:13;4.80;;;4.40;;
11283;SDS011;5698;47.332;11.180;2023-04-25T06:14:41;3.10;;;2.90;;
11283;SDS011;5698;47.332;11.180;2023-04-25T06:17:08;1.83;;;1.73;;
11283;SDS011;5698;47.332;11.180;2023-04-25T06:19:35;2.20;;;1.70;;
11283;SDS011;5698;47.332;11.180;2023-04-25T06:22:02;1.53;;;1.43;;
11283;SDS011;5698;47.332;11.180;2023-04-25T06:24:29;1.80;;;1.70;;
11283;SDS011;5698;47.332;11.180;2023-04-25T06:26:56;1.90;;;1.70;;
11283;SDS011;5698;47.332;11.180;2023-04-25T06:29:23;2.17;;;1.97;;
11283;SDS011;5698;47.332;11.180;2023-04-25T06:31:52;3.40;;;3.10;;
11283;SDS011;5698;47.332;11.180;2023-04-25T06:34:19;4.03;;;3.60;;
11283;SDS011;5698;47.332;11.180;2023-04-25T06:36:45;5.87;;;4.53;;
11283;SDS011;5698;47.332;11.180;2023-04-25T06:39:12;3.23;;;2.83;;
11283;SDS011;5698;47.332;11.180;2023-04-25T06:41:40;2.37;;;2.17;;
11283;SDS011;5698;47.332;11.180;2023-04-25T06:44:06;4.20;;;2.63;;
11283;SDS011;5698;47.332;11.180;2023-04-25T06:46:33;2.43;;;1.87;;
11283;SDS011;5698;47.332;11.180;2023-04-25T06:49:02;2.60;;;2.20;;
11283;SDS011;5698;47.332;11.180;2023-04-25T06:51:29;2.60;;;2.30;;
11283;SDS011;5698;47.332;11.180;2023-04-25T06:53:56;2.87;;;2.60;;
11283;SDS011;5698;47.332;11.180;2023-04-25T06:56:24;2.80;;;2.53;;
11283;SDS011;5698;47.332;11.180;2023-04-25T06:58:50;2.33;;;2.13;;
11283;SDS011;5698;47.332;11.180;2023-04-25T07:01:17;1.53;;;1.43;;
11283;SDS011;5698;47.332;11.180;2023-04-25T07:03:44;3.93;;;2.53;;
11283;SDS011;5698;47.332;11.180;2023-04-25T07:06:13;3.17;;;1.80;;
11283;SDS011;5698;47.332;11.180;2023-04-25T07:08:40;3.50;;;1.30;;
11283;SDS011;5698;47.332;11.180;2023-04-25T07:11:07;2.77;;;1.83;;
11283;SDS011;5698;47.332;11.180;2023-04-25T07:13:34;3.60;;;1.93;;
11283;SDS011;5698;47.332;11.180;2023-04-25T07:16:01;2.33;;;2.10;;
11283;SDS011;5698;47.332;11.180;2023-04-25T07:18:28;3.00;;;2.10;;
11283;SDS011;5698;47.332;11.180;2023-04-25T07:20:55;3.20;;;1.80;;
11283;SDS011;5698;47.332;11.180;2023-04-25T07:23:24;2.53;;;1.40;;
11283;SDS011;5698;47.332;11.180;2023-04-25T07:25:51;5.20;;;2.33;;
11283;SDS011;5698;47.332;11.180;2023-04-25T07:28:18;3.30;;;2.20;;
11283;SDS011;5698;47.332;11.180;2023-04-25T07:30:45;4.57;;;1.60;;
11283;SDS011;5698;47.332;11.180;2023-04-25T07:33:12;2.13;;;1.60;;
11283;SDS011;5698;47.332;11.180;2023-04-25T07:35:39;3.07;;;2.13;;
11283;SDS011;5698;47.332;11.180;2023-04-25T07:38:06;3.57;;;2.00;;
11283;SDS011;5698;47.332;11.180;2023-04-25T07:40:36;2.10;;;1.87;;
11283;SDS011;5698;47.332;11.180;2023-04-25T07:43:03;2.40;;;1.50;;
11283;SDS011;5698;47.332;11.180;2023-04-25T07:45:30;3.40;;;1.67;;
11283;SDS011;5698;47.332;11.180;2023-04-25T07:47:57;2.43;;;1.70;;
11283;SDS011;5698;47.332;11.180;2023-04-25T07:50:24;2.77;;;1.50;;
11283;SDS011;5698;47.332;11.180;2023-04-25T07:52:51;1.67;;;1.57;;
11283;SDS011;5698;47.332;11.180;2023-04-25T07:55:18;2.27;;;1.77;;
11283;SDS011;5698;47.332;11.180;2023-04-25T07:57:46;2.93;;;1.83;;
11283;SDS011;5698;47.332;11.180;2023-04-25T08:00:14;3.60;;;1.70;;
11283;SDS011;5698;47.332;11.180;2023-04-25T08:02:41;2.03;;;1.40;;
11283;SDS011;5698;47.332;11.180;2023-04-25T08:05:08;3.47;;;1.57;;
11283;SDS011;5698;47.332;11.180;2023-04-25T08:07:37;2.67;;;1.60;;
11283;SDS011;5698;47.332;11.180;2023-04-25T08:10:04;2.97;;;1.10;;
11283;SDS011;5698;47.332;11.180;2023-04-25T08:12:32;2.97;;;1.77;;
11283;SDS011;5698;47.332;11.180;2023-04-25T08:15:02;4.50;;;1.17;;
11283;SDS011;5698;47.332;11.180;2023-04-25T08:17:30;4.00;;;1.70;;
11283;SDS011;5698;47.332;11.180;2023-04-25T08:19:57;3.17;;;1.43;;
11283;SDS011;5698;47.332;11.180;2023-04-25T08:22:24;2.13;;;1.53;;
11283;SDS011;5698;47.332;11.180;2023-04-25T08:24:51;1.20;;;0.90;;
11283;SDS011;5698;47.332;11.180;2023-04-25T08:27:18;3.33;;;1.40;;
11283;SDS011;5698;47.332;11.180;2023-04-25T08:29:45;1.47;;;0.93;;
11283;SDS011;5698;47.332;11.180;2023-04-25T08:32:14;2.67;;;1.10;;
11283;SDS011;5698;47.332;11.180;2023-04-25T08:34:41;3.33;;;1.27;;
11283;SDS011;5698;47.332;11.180;2023-04-25T08:37:09;2.10;;;1.20;;
11283;SDS011;5698;47.332;11.180;2023-04-25T08:39:36;2.13;;;0.90;;
11283;SDS011;5698;47.332;11.180;2023-04-25T08:42:05;2.30;;;1.03;;
11283;SDS011;5698;47.332;11.180;2023-04-25T08:44:33;2.13;;;1.00;;
11283;SDS011;5698;47.332;11.180;2023-04-25T08:47:01;1.80;;;0.93;;
11283;SDS011;5698;47.332;11.180;2023-04-25T08:49:31;1.40;;;0.70;;
11283;SDS011;5698;47.332;11.180;2023-04-25T08:51:59;2.87;;;0.90;;
11283;SDS011;5698;47.332;11.180;2023-04-25T08:54:28;3.37;;;0.90;;
11283;SDS011;5698;47.332;11.180;2023-04-25T08:56:57;3.47;;;1.00;;
11283;SDS011;5698;47.332;11.180;2023-04-25T08:59:29;1.90;;;0.80;;
11283;SDS011;5698;47.332;11.180;2023-04-25T09:01:56;1.30;;;1.00;;
11283;SDS011;5698;47.332;11.180;2023-04-25T09:04:23;1.37;;;0.80;;
11283;SDS011;5698;47.332;11.180;2023-04-25T09:06:52;1.80;;;0.90;;
11283;SDS011;5698;47.332;11.180;2023-04-25T09:09:19;1.33;;;0.90;;
11283;SDS011;5698;47.332;11.180;2023-04-25T09:11:46;3.97;;;0.93;;
11283;SDS011;5698;47.332;11.180;2023-04-25T09:14:13;1.80;;;0.83;;
11283;SDS011;5698;47.332;11.180;2023-04-25T09:16:57;1.33;;;0.90;;
11283;SDS011;5698;47.332;11.180;2023-04-25T09:19:25;1.57;;;1.00;;
11283;SDS011;5698;47.332;11.180;2023-04-25T09:21:55;2.30;;;1.10;;
11283;SDS011;5698;47.332;11.180;2023-04-25T09:24:32;1.77;;;1.00;;
11283;SDS011;5698;47.332;11.180;2023-04-25T09:27:02;0.93;;;0.70;;
11283;SDS011;5698;47.332;11.180;2023-04-25T09:29:30;2.57;;;1.20;;
11283;SDS011;5698;47.332;11.180;2023-04-25T09:32:10;1.47;;;0.90;;
11283;SDS011;5698;47.332;11.180;2023-04-25T09:34:39;1.50;;;0.87;;
11283;SDS011;5698;47.332;11.180;2023-04-25T09:37:09;2.00;;;1.00;;
11283;SDS011;5698;47.332;11.180;2023-04-25T09:39:37;1.57;;;0.90;;
11283;SDS011;5698;47.332;11.180;2023-04-25T09:42:04;1.30;;;1.10;;
11283;SDS011;5698;47.332;11.180;2023-04-25T09:44:31;2.23;;;1.00;;
11283;SDS011;5698;47.332;11.180;2023-04-25T09:46:58;2.27;;;0.97;;
11283;SDS011;5698;47.332;11.180;2023-04-25T09:49:25;1.43;;;0.97;;
11283;SDS011;5698;47.332;11.180;2023-04-25T09:51:54;3.03;;;1.70;;
11283;SDS011;5698;47.332;11.180;2023-04-25T09:54:24;2.17;;;1.00;;
11283;SDS011;5698;47.332;11.180;2023-04-25T09:56:51;3.07;;;0.90;;
11283;SDS011;5698;47.332;11.180;2023-04-25T09:59:19;2.30;;;0.90;;
11283;SDS011;5698;47.332;11.180;2023-04-25T10:01:48;0.80;;;0.70;;
11283;SDS011;5698;47.332;11.180;2023-04-25T10:04:16;3.87;;;1.50;;
11283;SDS011;5698;47.332;11.180;2023-04-25T10:06:48;2.17;;;1.10;;
11283;SDS011;5698;47.332;11.180;2023-04-25T10:09:17;1.40;;;0.83;;
11283;SDS011;5698;47.332;11.180;2023-04-25T10:11:47;2.73;;;1.20;;
11283;SDS011;5698;47.332;11.180;2023-04-25T10:14:15;1.20;;;1.10;;
11283;SDS011;5698;47.332;11.180;2023-04-25T10:16:43;2.30;;;1.00;;
11283;SDS011;5698;47.332;11.180;2023-04-25T10:19:10;3.90;;;1.50;;
11283;SDS011;5698;47.332;11.180;2023-04-25T10:21:39;1.53;;;1.20;;
11283;SDS011;5698;47.332;11.180;2023-04-25T10:24:12;1.83;;;1.40;;
11283;SDS011;5698;47.332;11.180;2023-04-25T10:26:40;3.27;;;1.30;;
11283;SDS011;5698;47.332;11.180;2023-04-25T10:29:09;1.97;;;1.60;;
11283;SDS011;5698;47.332;11.180;2023-04-25T10:31:44;2.00;;;0.90;;
11283;SDS011;5698;47.332;11.180;2023-04-25T10:34:11;1.60;;;1.17;;
11283;SDS011;5698;47.332;11.180;2023-04-25T10:36:39;1.27;;;0.80;;
11283;SDS011;5698;47.332;11.180;2023-04-25T10:39:06;1.33;;;1.03;;
11283;SDS011;5698;47.332;11.180;2023-04-25T10:41:45;0.70;;;0.70;;
11283;SDS011;5698;47.332;11.180;2023-04-25T10:44:14;1.90;;;0.90;;
11283;SDS011;5698;47.332;11.180;2023-04-25T10:46:41;1.47;;;0.80;;
11283;SDS011;5698;47.332;11.180;2023-04-25T10:49:10;1.77;;;1.13;;
11283;SDS011;5698;47.332;11.180;2023-04-25T10:52:04;0.70;;;0.70;;
11283;SDS011;5698;47.332;11.180;2023-04-25T10:54:41;1.00;;;0.90;;
11283;SDS011;5698;47.332;11.180;2023-04-25T10:59:59;1.73;;;0.90;;
11283;SDS011;5698;47.332;11.180;2023-04-25T11:02:28;1.50;;;0.60;;
11283;SDS011;5698;47.332;11.180;2023-04-25T11:04:55;0.70;;;0.70;;
11283;SDS011;5698;47.332;11.180;2023-04-25T11:07:25;1.00;;;0.60;;
11283;SDS011;5698;47.332;11.180;2023-04-25T11:09:58;1.50;;;0.73;;
11283;SDS011;5698;47.332;11.180;2023-04-25T11:12:29;0.90;;;0.80;;
11283;SDS011;5698;47.332;11.180;2023-04-25T11:15:01;1.10;;;0.77;;
11283;SDS011;5698;47.332;11.180;2023-04-25T11:17:29;1.63;;;1.00;;
11283;SDS011;5698;47.332;11.180;2023-04-25T11:19:56;1.93;;;1.00;;
11283;SDS011;5698;47.332;11.180;2023-04-25T11:22:24;1.37;;;0.80;;
11283;SDS011;5698;47.332;11.180;2023-04-25T11:24:52;1.90;;;0.80;;
11283;SDS011;5698;47.332;11.180;2023-04-25T11:27:19;1.70;;;1.20;;
11283;SDS011;5698;47.332;11.180;2023-04-25T11:29:49;0.80;;;0.80;;
11283;SDS011;5698;47.332;11.180;2023-04-25T11:32:18;0.80;;;0.80;;
11283;SDS011;5698;47.332;11.180;2023-04-25T11:34:46;0.90;;;0.80;;
11283;SDS011;5698;47.332;11.180;2023-04-25T11:37:13;1.40;;;0.90;;
11283;SDS011;5698;47.332;11.180;2023-04-25T11:39:43;0.77;;;0.70;;
11283;SDS011;5698;47.332;11.180;2023-04-25T11:42:12;0.80;;;0.67;;
11283;SDS011;5698;47.332;11.180;2023-04-25T11:44:39;1.27;;;1.07;;
11283;SDS011;5698;47.332;11.180;2023-04-25T11:47:06;1.93;;;0.70;;
11283;SDS011;5698;47.332;11.180;2023-04-25T11:49:35;2.33;;;0.70;;
11283;SDS011;5698;47.332;11.180;2023-04-25T11:52:02;0.97;;;0.60;;
11283;SDS011;5698;47.332;11.180;2023-04-25T11:54:29;1.47;;;0.70;;
11283;SDS011;5698;47.332;11.180;2023-04-25T11:56:56;1.37;;;0.67;;
11283;SDS011;5698;47.332;11.180;2023-04-25T11:59:24;0.70;;;0.70;;
11283;SDS011;5698;47.332;11.180;2023-04-25T12:01:51;1.07;;;0.80;;
11283;SDS011;5698;47.332;11.180;2023-04-25T12:04:20;2.80;;;0.87;;
11283;SDS011;5698;47.332;11.180;2023-04-25T12:06:49;1.50;;;0.93;;
11283;SDS011;5698;47.332;11.180;2023-04-25T12:09:18;1.00;;;0.70;;
11283;SDS011;5698;47.332;11.180;2023-04-25T12:11:46;0.70;;;0.60;;
11283;SDS011;5698;47.332;11.180;2023-04-25T12:14:20;0.73;;;0.60;;
11283;SDS011;5698;47.332;11.180;2023-04-25T12:16:49;0.50;;;0.50;;
11283;SDS011;5698;47.332;11.180;2023-04-25T12:19:17;0.73;;;0.50;;
11283;SDS011;5698;47.332;11.180;2023-04-25T12:21:45;0.60;;;0.60;;
11283;SDS011;5698;47.332;11.180;2023-04-25T12:24:14;1.03;;;0.63;;
11283;SDS011;5698;47.332;11.180;2023-04-25T12:26:47;0.60;;;0.60;;
11283;SDS011;5698;47.332;11.180;2023-04-25T12:29:18;1.23;;;0.70;;
11283;SDS011;5698;47.332;11.180;2023-04-25T12:31:46;1.10;;;0.80;;
11283;SDS011;5698;47.332;11.180;2023-04-25T12:34:14;0.50;;;0.50;;
11283;SDS011;5698;47.332;11.180;2023-04-25T12:36:41;0.63;;;0.60;;
11283;SDS011;5698;47.332;11.180;2023-04-25T12:39:08;0.70;;;0.70;;
11283;SDS011;5698;47.332;11.180;2023-04-25T12:41:42;0.60;;;0.60;;
11283;SDS011;5698;47.332;11.180;2023-04-25T12:44:09;0.60;;;0.60;;
11283;SDS011;5698;47.332;11.180;2023-04-25T12:46:36;0.50;;;0.50;;
11283;SDS011;5698;47.332;11.180;2023-04-25T12:49:03;0.70;;;0.50;;
11283;SDS011;5698;47.332;11.180;2023-04-25T12:51:31;1.03;;;0.50;;
11283;SDS011;5698;47.332;11.180;2023-04-25T12:53:58;0.67;;;0.67;;
11283;SDS011;5698;47.332;11.180;2023-04-25T12:56:25;1.23;;;0.70;;
11283;SDS011;5698;47.332;11.180;2023-04-25T12:58:54;0.70;;;0.50;;
11283;SDS011;5698;47.332;11.180;2023-04-25T13:01:21;0.50;;;0.50;;
11283;SDS011;5698;47.332;11.180;2023-04-25T13:03:49;0.60;;;0.57;;
11283;SDS011;5698;47.332;11.180;2023-04-25T13:06:16;1.17;;;0.60;;
11283;SDS011;5698;47.332;11.180;2023-04-25T13:08:44;0.87;;;0.50;;
11283;SDS011;5698;47.332;11.180;2023-04-25T13:11:11;0.50;;;0.50;;
11283;SDS011;5698;47.332;11.180;2023-04-25T13:13:39;0.60;;;0.60;;
11283;SDS011;5698;47.332;11.180;2023-04-25T13:16:08;0.73;;;0.73;;
11283;SDS011;5698;47.332;11.180;2023-04-25T13:18:35;0.73;;;0.60;;
11283;SDS011;5698;47.332;11.180;2023-04-25T13:21:02;0.50;;;0.50;;
11283;SDS011;5698;47.332;11.180;2023-04-25T13:23:29;0.57;;;0.57;;
11283;SDS011;5698;47.332;11.180;2023-04-25T13:25:57;0.50;;;0.50;;
11283;SDS011;5698;47.332;11.180;2023-04-25T13:28:25;1.23;;;0.60;;
11283;SDS011;5698;47.332;11.180;2023-04-25T13:30:53;0.70;;;0.70;;
11283;SDS011;5698;47.332;11.180;2023-04-25T13:33:21;0.50;;;0.50;;
11283;SDS011;5698;47.332;11.180;2023-04-25T13:35:49;0.70;;;0.50;;
11283;SDS011;5698;47.332;11.180;2023-04-25T13:38:19;0.97;;;0.60;;
11283;SDS011;5698;47.332;11.180;2023-04-25T13:40:47;1.10;;;0.50;;
11283;SDS011;5698;47.332;11.180;2023-04-25T13:43:14;1.00;;;0.40;;
11283;SDS011;5698;47.332;11.180;2023-04-25T13:45:41;2.43;;;0.70;;
11283;SDS011;5698;47.332;11.180;2023-04-25T13:48:08;0.70;;;0.50;;
11283;SDS011;5698;47.332;11.180;2023-04-25T13:50:37;3.67;;;2.63;;
11283;SDS011;5698;47.332;11.180;2023-04-25T13:53:04;3.80;;;2.30;;
11283;SDS011;5698;47.332;11.180;2023-04-25T13:55:31;1.73;;;1.10;;
11283;SDS011;5698;47.332;11.180;2023-04-25T13:58:00;0.77;;;0.60;;
11283;SDS011;5698;47.332;11.180;2023-04-25T14:00:32;1.07;;;0.60;;
11283;SDS011;5698;47.332;11.180;2023-04-25T14:03:00;5.53;;;4.60;;
11283;SDS011;5698;47.332;11.180;2023-04-25T14:05:29;1.73;;;1.63;;
11283;SDS011;5698;47.332;11.180;2023-04-25T14:07:58;2.10;;;0.80;;
11283;SDS011;5698;47.332;11.180;2023-04-25T14:10:25;0.40;;;0.40;;
11283;SDS011;5698;47.332;11.180;2023-04-25T14:12:52;0.50;;;0.50;;
11283;SDS011;5698;47.332;11.180;2023-04-25T14:15:19;0.50;;;0.40;;
11283;SDS011;5698;47.332;11.180;2023-04-25T14:17:46;0.70;;;0.40;;
11283;SDS011;5698;47.332;11.180;2023-04-25T14:20:14;0.50;;;0.50;;
11283;SDS011;5698;47.332;11.180;2023-04-25T14:22:45;0.37;;;0.30;;
11283;SDS011;5698;47.332;11.180;2023-04-25T14:25:14;0.40;;;0.40;;
11283;SDS011;5698;47.332;11.180;2023-04-25T14:27:41;1.03;;;0.43;;
11283;SDS011;5698;47.332;11.180;2023-04-25T14:30:09;3.30;;;0.90;;
11283;SDS011;5698;47.332;11.180;2023-04-25T14:32:37;0.40;;;0.40;;
11283;SDS011;5698;47.332;11.180;2023-04-25T14:35:05;0.57;;;0.57;;
11283;SDS011;5698;47.332;11.180;2023-04-25T14:37:33;0.50;;;0.40;;
11283;SDS011;5698;47.332;11.180;2023-04-25T14:40:00;0.50;;;0.50;;
11283;SDS011;5698;47.332;11.180;2023-04-25T14:42:28;0.63;;;0.60;;
11283;SDS011;5698;47.332;11.180;2023-04-25T14:44:55;2.33;;;0.60;;
11283;SDS011;5698;47.332;11.180;2023-04-25T14:47:22;3.00;;;0.40;;
11283;SDS011;5698;47.332;11.180;2023-04-25T14:49:49;0.40;;;0.40;;
11283;SDS011;5698;47.332;11.180;2023-04-25T14:52:19;0.60;;;0.60;;
11283;SDS011;5698;47.332;11.180;2023-04-25T14:54:46;0.60;;;0.60;;